KCNU

Chanute Martin Johnson Airport

Chanute, Kansas, USA
KCNU 210522Z 2106/2206 05008KT P6SM VCTS OVC100CB TEMPO 2106/2108 VRB20G35KT 3SM +TSRA OVC040CB FM210900 05007KT P6SM BKN120 FM211700 04007KT P6SM FEW250
Issued Valid From Valid To
Jul-21 @ 05:22 UTC
(5 hours ago)
Jul-21 @ 06:00 UTC
(4 hours ago)
Jul-22 @ 06:00 UTC
(in 20 hours)
Expired Click to View Jul-21 @ 06:00 to Jul-21 @ 09:00
KCNU 210522Z 2106/2206 05008KT P6SM VCTS OVC100CB
Wind Visibility Clouds Conditions
50° at 8 knots Greater than 6 miles
  • Overcast at 10,000' AGL
  • Area Thunderstorm
Expired Click to View Jul-21 @ 06:00 to Jul-21 @ 08:00
TEMPO 2106/2108 VRB20G35KT 3SM +TSRA OVC040CB
Wind Visibility Clouds Conditions
Variable at 20 knots
 Gusting to 35 knots
3 miles
  • Overcast at 4,000' AGL
  • Heavy Thunderstorm
  • Heavy Rain
From Jul-21 @ 09:00 to Jul-21 @ 17:00
FM210900 05007KT P6SM BKN120
Wind Visibility Clouds
50° at 7 knots Greater than 6 miles
  • Broken at 12,000' AGL
From Jul-21 @ 17:00 to Jul-22 @ 06:00
FM211700 04007KT P6SM FEW250
Wind Visibility Clouds
40° at 7 knots Greater than 6 miles
  • Few at 25,000' AGL
KCNU 210522Z 2106/2206 05008KT P6SM VCTS OVC100CB TEMPO 2106/2108 VRB20G35KT 3SM +TSRA OVC040CB FM210900 05007KT P6SM BKN120 FM211700 04007KT P6SM FEW250
Issued Jul-21 @ 05:22 UTC
(5 hours ago)
Valid From Jul-21 @ 06:00 UTC
(4 hours ago)
Valid To Jul-22 @ 06:00 UTC
(in 20 hours)
Jul-21 @ 06:00 - Jul-21 @ 09:00
Wind Visibility
50° at 8 knots Greater than 6 miles
Clouds
  • Overcast at 10,000' AGL
Conditions
  • Area Thunderstorm
Jul-21 @ 06:00 - Jul-21 @ 08:00
Wind Visibility
Variable at 20 knots
 Gusting to 35 knots
3 miles
Clouds
  • Overcast at 4,000' AGL
Conditions
  • Heavy Thunderstorm
  • Heavy Rain
From Jul-21 @ 09:00 - Jul-21 @ 17:00
Wind Visibility
50° at 7 knots Greater than 6 miles
Clouds
  • Broken at 12,000' AGL
From Jul-21 @ 17:00 - Jul-22 @ 06:00
Wind Visibility
40° at 7 knots Greater than 6 miles
Clouds
  • Few at 25,000' AGL